Station: WUDINNA AP

  Atmospheric Gas Attenuation - ITU Rec 676-11   --------------- db/100km ---------------
Date Time Temp RH % AH g/m3 Dew Point Wind Direction Speed kph Gust kph Barometer mB Rainfall Since 9am 24GHz 47GHz 76GHz 122GHz 134GHz 241GHz
24 19:00 33.8 16 5.94 4.5 20 33 1002.8 0 13.3 17.4 23.1 60.2 50.5 172.6
24 18:50 33.4 18 6.55 5.9 24 32 1002.6 0 14.5 18.1 24.9 65.0 56.4 193.4
24 18:40 33.2 19 6.84 6.5 37 46 1002.8 0 15.1 18.5 25.8 67.4 59.3 203.5
24 18:30 34.2 15 5.69 3.9 43 59 1002.6 0 12.7 17.0 22.3 58.0 48.0 163.8
24 18:20 34.6 15 5.81 4.2 44 52 1002.4 0 13.0 17.1 22.5 58.6 48.8 166.8
24 18:10 34.3 16 6.1 4.9 46 59 1002.5 0 13.6 17.4 23.4 61.0 51.6 176.7
24 18:00 34.5 16 6.17 5 46 76 1002.6 0 13.7 17.5 23.5 61.4 52.2 178.6
24 17:50 36.8 12 5.21 2.8 44 50 1002.4 0 11.7 16.0 20.4 52.9 42.4 144.3
24 17:40 37.4 11 4.92 2 41 46 1002.1 0 11.1 15.6 19.5 50.6 39.6 134.6
24 17:30 37 12 5.26 2.9 37 54 1002.2 0 11.8 16.1 20.4 53.2 42.7 145.5
24 17:20 36.5 13 5.56 3.7 35 41 1002.3 0 12.4 16.5 21.3 55.6 45.6 155.5
24 17:10 36.5 14 5.99 4.7 33 43 1002.7 0 13.3 16.9 22.5 58.7 49.4 168.9
24 17:00 36.4 14 5.95 4.6 37 52 1002.8 0 13.2 16.9 22.4 58.5 49.1 167.8
24 16:50 36.9 14 6.11 5 39 46 1003 0 13.5 17.0 22.7 59.3 50.2 171.9
24 16:40 36.6 14 6.02 4.8 41 46 1003.1 0 13.3 17.0 22.6 58.8 49.6 169.7
24 16:30 37.2 14 6.2 5.3 44 56 1003.1 0 13.7 17.1 22.9 59.7 50.8 174.1
24 16:20 38.1 14 6.5 6 37 43 1003 0 14.2 17.2 23.5 61.3 52.9 181.6
24 16:10 38.8 12 5.77 4.3 39 48 1002.9 0 12.7 16.3 21.3 55.6 46.2 157.9
24 16:00 40.4 12 6.25 5.5 37 56 1003 0 13.7 16.6 22.2 57.9 49.4 169.4
24 15:50 39.5 12 5.98 4.8 33 41 1003 0 13.1 16.4 21.7 56.6 47.6 162.9
24 15:40 39.6 12 6.01 4.9 41 52 1003.1 0 13.2 16.4 21.8 56.8 47.8 163.7
24 15:30 39.3 12 5.92 4.7 43 57 1003.3 0 13.0 16.4 21.6 56.4 47.2 161.5
24 15:20 39 12 5.83 4.4 43 52 1003.4 0 12.9 16.4 21.5 55.9 46.6 159.4
24 15:10 39.2 12 5.89 4.6 43 50 1003.5 0 13.0 16.4 21.6 56.2 47.0 160.8
24 15:00 38.7 12 5.74 4.2 32 48 1003.5 0 12.7 16.3 21.3 55.5 46.0 157.2
24 14:50 39.2 12 5.89 4.6 28 32 1003.5 0 13.0 16.4 21.6 56.2 47.0 160.8
24 14:40 39.2 12 5.89 4.6 22 26 1003.7 0 13.0 16.4 21.6 56.3 47.0 160.9
24 14:30 38.8 13 6.25 5.4 28 39 1003.9 0 13.7 16.9 22.6 59.1 50.4 172.6
24 14:20 38.4 13 6.12 5.1 30 33 1004 0 13.5 16.8 22.4 58.4 49.5 169.4
24 14:10 37.3 14 6.24 5.3 20 32 1003.9 0 13.7 17.1 23.0 60.0 51.2 175.3
24 14:00 37.8 14 6.4 5.7 20 28 1003.8 0 14.1 17.2 23.3 60.8 52.3 179.3
24 13:50 36.9 15 6.55 6 26 30 1003.8 0 14.4 17.5 23.9 62.5 54.2 185.9
24 13:40 36.3 16 6.77 6.5 24 30 1004.1 0 14.9 17.9 24.7 64.6 56.6 194.3
24 13:30 35.6 18 7.35 7.6 24 37 1004.3 0 16.1 18.7 26.6 69.5 62.5 214.9
24 13:20 35.5 18 7.31 7.5 22 26 1004.4 0 16.0 18.7 26.5 69.3 62.2 213.9
24 13:10 35.2 18 7.19 7.3 26 30 1004.6 0 15.7 18.6 26.2 68.7 61.3 210.7
24 13:00 35.2 18 7.19 7.3 30 35 1004.6 0 15.7 18.6 26.2 68.7 61.3 210.7
24 12:50 34.8 19 7.44 7.8 26 33 1004.7 0 16.3 19.0 27.1 70.9 63.9 220.0
24 12:40 34.3 20 7.63 8.1 20 24 1004.7 0 16.7 19.3 27.8 72.8 66.1 227.8
24 12:30 34.4 21 8.05 8.9 20 30 1004.9 0 17.5 19.8 29.0 76.1 70.2 241.9
24 12:20 34.2 21 7.97 8.8 20 24 1004.9 0 17.4 19.7 28.8 75.6 69.6 239.7
24 12:10 34.1 21 7.92 8.7 20 26 1004.9 0 17.3 19.7 28.7 75.3 69.1 238.3
24 12:00 34 22 8.26 9.3 24 32 1004.8 0 18.0 20.1 29.8 78.1 72.6 250.3
24 11:50 33.6 23 8.45 9.6 24 30 1004.8 0 18.4 20.4 30.5 80.0 74.8 258.2
24 11:40 32.8 25 8.81 10.2 17 19 1004.7 0 19.2 21.1 31.9 83.7 79.2 273.5
24 11:30 32.2 26 8.87 10.3 13 20 1004.6 0 19.3 21.3 32.3 84.8 80.4 277.6
24 11:20 32.3 25 8.58 9.8 13 15 1004.6 0 18.7 20.9 31.4 82.3 77.3 266.8
24 11:10 31.4 28 9.16 10.7 7 11 1004.5 0 19.9 21.8 33.5 88.1 84.2 291.0
24 11:00 30.8 30 9.5 11.2 15 20 1004.5 0 20.7 22.4 34.9 91.7 88.5 305.9
24 10:50 30.8 30 9.5 11.2 15 19 1004.7 0 20.7 22.4 34.9 91.7 88.5 305.9
24 10:40 30.3 29 8.94 10.3 13 15 1004.9 0 19.5 21.8 33.3 87.4 83.1 286.7
24 10:30 29.9 29 8.75 9.9 13 20 1004.7 0 19.2 21.6 32.8 86.2 81.4 281.0
24 10:20 29.5 30 8.86 10.1 15 17 1004.8 0 19.4 21.9 33.3 87.6 83.0 286.5
24 10:10 29.2 31 9 10.3 15 22 1004.8 0 19.7 22.1 33.9 89.1 84.8 292.8
24 10:00 29.5 32 9.45 11.1 22 30 1005.1 0 20.6 22.7 35.3 92.8 89.4 309.0
24 09:50 28.6 33 9.28 10.8 26 32 1005.2 0 20.3 22.7 35.1 92.3 88.6 305.8
24 09:40 28.5 33 9.22 10.7 20 24 1004.9 0 20.2 22.6 34.9 91.8 88.0 303.8
24 09:30 28.7 33 9.33 10.8 26 32 1005 0 20.4 22.7 35.2 92.6 89.0 307.3
24 09:20 28.1 34 9.3 10.8 26 32 1004.5 0 20.4 22.8 35.4 92.9 89.3 308.3
24 09:10 27.8 35 9.41 10.9 22 26 1004.2 0 20.6 23.0 35.9 94.3 90.8 313.7
24 09:00 27.9 33 8.93 10.1 19 26 1004.5 0 19.6 22.3 34.2 89.9 85.4 294.7
24 08:50 27.9 32 8.66 9.7 22 28 1004.6 0 19.1 22.0 33.3 87.5 82.5 284.4
24 08:40 28.5 28 7.83 8.2 24 28 1004.7 0 17.3 20.8 30.4 79.7 73.0 251.3
24 08:30 29.5 20 5.9 4.2 17 22 1004.7 0 13.3 18.2 24.2 63.1 52.8 180.5
24 08:20 30.1 17 5.18 2.4 15 19 1004.5 0 11.8 17.2 22.0 57.1 45.6 155.2
24 08:10 30.5 15 4.67 1 9 11 1004.4 0 10.8 16.5 20.4 53.0 40.7 137.9
24 08:00 30.4 15 4.65 0.9 7 13 1004.3 0 10.7 16.5 20.4 53.0 40.6 137.4
24 07:50 30 14 4.25 -0.4 7 9 1004.3 0 9.9 16.1 19.4 50.3 37.2 125.3
24 07:40 29.7 14 4.18 -0.6 11 13 1004.1 0 9.8 16.1 19.3 49.9 36.7 123.5
24 07:30 29.6 14 4.16 -0.7 15 17 1004.1 0 9.7 16.1 19.2 49.8 36.5 123.0
24 07:20 29.6 13 3.86 -1.7 15 15 1004 0 9.1 15.8 18.4 47.6 33.8 113.5
24 07:10 30.2 13 3.99 -1.2 17 19 1003.8 0 9.4 15.8 18.7 48.2 34.7 116.8
24 07:00 30.4 13 4.03 -1.1 19 24 1003.7 0 9.4 15.8 18.7 48.4 35.0 117.7
24 06:50 30.2 13 3.99 -1.2 20 22 1003.6 0 9.4 15.8 18.6 48.2 34.7 116.7
24 06:40 30.7 12 3.78 -1.9 20 24 1003.4 0 8.9 15.5 18.0 46.4 32.7 109.5
24 06:30 30.3 13 4.01 -1.2 13 17 1003.2 0 9.4 15.8 18.7 48.3 34.9 117.2
24 06:20 30.3 13 4.01 -1.2 15 17 1003.2 0 9.4 15.8 18.7 48.3 34.9 117.2
24 06:10 31 12 3.84 -1.7 22 28 1003 0 9.0 15.5 18.1 46.7 33.1 111.0
24 06:00 31.3 12 3.9 -1.5 20 33 1002.7 0 9.2 15.5 18.2 46.9 33.5 112.4
24 05:50 31.6 12 3.97 -1.2 17 20 1002.5 0 9.3 15.5 18.3 47.2 34.0 114.1
24 05:40 31.1 12 3.86 -1.6 15 19 1002.5 0 9.1 15.5 18.1 46.7 33.2 111.4
24 05:30 32.2 11 3.75 -2 19 24 1002.3 0 8.8 15.2 17.6 45.4 31.8 106.7
24 05:20 32.5 11 3.81 -1.7 20 24 1002.3 0 8.9 15.2 17.7 45.6 32.2 108.1
24 04:50 32.2 11 3.75 -2 22 28 1002.1 0 8.8 15.2 17.6 45.4 31.8 106.6
24 04:40 32.3 11 3.77 -1.9 17 20 1002 0 8.9 15.2 17.6 45.4 31.9 107.1
24 04:30 32.6 11 3.84 -1.7 20 26 1002.1 0 9.0 15.2 17.7 45.8 32.4 108.9
24 04:20 32.2 11 3.75 -2 17 20 1002.1 0 8.8 15.2 17.6 45.4 31.8 106.6
24 04:10 32.1 11 3.73 -2 22 28 1002 0 8.8 15.2 17.5 45.3 31.7 106.1
24 04:00 31.8 11 3.68 -2.3 20 28 1002.2 0 8.7 15.2 17.5 45.1 31.4 105.0
24 03:50 32.4 11 3.79 -1.8 24 28 1002.4 0 8.9 15.2 17.6 45.6 32.1 107.6
24 03:40 32.3 11 3.77 -1.9 24 28 1002.4 0 8.9 15.2 17.6 45.5 32.0 107.1
24 03:30 32.3 11 3.77 -1.9 24 30 1002.5 0 8.9 15.2 17.6 45.5 32.0 107.2
24 03:20 32.1 11 3.73 -2 22 30 1002.6 0 8.8 15.2 17.5 45.3 31.7 106.2
24 03:10 31.8 11 3.68 -2.3 22 26 1002.9 0 8.7 15.2 17.5 45.1 31.4 105.1
24 03:00 32 11 3.71 -2.1 20 28 1003 0 8.8 15.2 17.5 45.2 31.6 105.8
24 02:50 32 11 3.71 -2.1 19 22 1003.1 0 8.8 15.2 17.5 45.2 31.6 105.8
24 02:40 32.2 11 3.75 -2 24 28 1003.2 0 8.8 15.2 17.6 45.4 31.8 106.7
24 02:30 32.2 11 3.75 -2 20 24 1003.3 0 8.8 15.2 17.6 45.4 31.8 106.8
24 02:20 32.3 11 3.77 -1.9 20 24 1003.5 0 8.9 15.2 17.6 45.5 32.0 107.3
24 02:10 32.4 11 3.79 -1.8 19 24 1003.6 0 8.9 15.2 17.7 45.6 32.1 107.8

Last Refresh: 24-Jan-2021 19:09:01

Most of the information presented on this site is sourced from the Bureau of Meteorology.  Copyright in all material sourced from the Bureau of Meteorology resides with the Commonwealth of Australia.